createdAt,value
2017-10-04T00:00:00.305Z,11.50
2017-10-04T00:02:27.765Z,11.50
2017-10-04T00:04:55.217Z,11.50
2017-10-04T00:07:22.679Z,11.50
2017-10-04T00:09:50.175Z,11.50
2017-10-04T00:12:17.642Z,11.50
2017-10-04T00:14:45.101Z,11.60
2017-10-04T00:17:12.598Z,11.60
2017-10-04T00:19:40.069Z,11.60
2017-10-04T00:22:07.523Z,11.60
2017-10-04T00:24:35.009Z,11.60
2017-10-04T00:27:02.465Z,11.60
2017-10-04T00:29:29.925Z,11.50
2017-10-04T00:31:57.398Z,11.50
2017-10-04T00:34:25.242Z,11.60
2017-10-04T00:36:52.699Z,11.60
2017-10-04T00:39:20.538Z,11.50
2017-10-04T00:41:47.981Z,11.60
2017-10-04T00:44:15.439Z,11.50
2017-10-04T00:46:42.929Z,11.50
2017-10-04T00:49:10.386Z,11.60
2017-10-04T00:51:37.846Z,11.60
2017-10-04T00:54:05.339Z,11.60
2017-10-04T00:56:32.803Z,11.60
2017-10-04T00:59:00.265Z,11.50
2017-10-04T01:01:27.990Z,11.60
2017-10-04T01:03:55.838Z,11.50
2017-10-04T01:06:23.289Z,11.50
2017-10-04T01:08:50.766Z,11.50
2017-10-04T01:11:18.620Z,11.60
2017-10-04T01:13:46.062Z,11.60
2017-10-04T01:16:13.822Z,11.50
2017-10-04T01:18:41.267Z,11.50
2017-10-04T01:21:08.718Z,11.50
2017-10-04T01:23:36.387Z,11.50
2017-10-04T01:26:03.838Z,11.50
2017-10-04T01:28:31.313Z,11.60
2017-10-04T01:30:58.830Z,11.50
2017-10-04T01:33:26.265Z,11.50
2017-10-04T01:35:53.728Z,11.50
2017-10-04T01:38:21.227Z,11.50
2017-10-04T01:40:48.668Z,11.50
2017-10-04T01:43:16.122Z,11.40
2017-10-04T01:45:43.790Z,11.50
2017-10-04T01:48:11.253Z,11.40
2017-10-04T01:50:38.706Z,11.40
2017-10-04T01:53:06.457Z,11.40
2017-10-04T01:55:33.906Z,11.40
2017-10-04T01:58:01.366Z,11.40
2017-10-04T02:00:28.866Z,11.40
2017-10-04T02:02:56.714Z,11.30
2017-10-04T02:05:24.568Z,11.30
2017-10-04T02:07:52.134Z,11.30
2017-10-04T02:10:19.578Z,11.30
2017-10-04T02:12:47.030Z,11.20
2017-10-04T02:15:14.518Z,11.20
2017-10-04T02:17:42.367Z,11.20
2017-10-04T02:20:09.813Z,11.20
2017-10-04T02:22:37.282Z,11.20
2017-10-04T02:25:05.125Z,11.20
2017-10-04T02:27:32.582Z,11.20
2017-10-04T02:30:00.071Z,11.20
2017-10-04T02:32:28.634Z,11.20
2017-10-04T02:34:56.483Z,11.20
2017-10-04T02:37:23.939Z,11.20
2017-10-04T02:39:51.389Z,11.20
2017-10-04T02:42:19.145Z,11.10
2017-10-04T02:44:46.597Z,11.10
2017-10-04T02:47:14.047Z,11.10
2017-10-04T02:49:41.718Z,11.10
2017-10-04T02:52:09.165Z,11.10
2017-10-04T02:54:36.612Z,11.10
2017-10-04T02:57:04.262Z,11.10
2017-10-04T02:59:31.711Z,11.10
2017-10-04T03:01:59.162Z,11.10
2017-10-04T03:04:26.778Z,11.10
2017-10-04T03:06:54.225Z,11.10
2017-10-04T03:09:21.674Z,11.10
2017-10-04T03:11:49.125Z,11.10
2017-10-04T03:14:16.577Z,11.20
2017-10-04T03:16:44.058Z,11.10
2017-10-04T03:19:11.911Z,11.10
2017-10-04T03:21:39.365Z,11.10
2017-10-04T03:24:06.853Z,11.10
2017-10-04T03:26:34.303Z,11.20
2017-10-04T03:29:01.759Z,11.10
2017-10-04T03:31:29.630Z,11.00
2017-10-04T03:33:57.078Z,11.00
2017-10-04T03:36:24.531Z,11.10
2017-10-04T03:38:52.390Z,11.00
2017-10-04T03:41:20.233Z,11.10
2017-10-04T03:43:47.713Z,11.10
2017-10-04T03:46:15.553Z,11.10
2017-10-04T03:48:43.001Z,11.10
2017-10-04T03:51:10.462Z,11.10
2017-10-04T03:53:37.910Z,11.10
2017-10-04T03:56:05.368Z,11.10
2017-10-04T03:58:33.142Z,11.10
2017-10-04T04:01:00.584Z,11.10
2017-10-04T04:03:28.036Z,11.20
2017-10-04T04:05:55.692Z,11.10
2017-10-04T04:08:23.185Z,11.20
2017-10-04T04:10:51.026Z,11.20
2017-10-04T04:13:18.869Z,11.20
2017-10-04T04:15:46.321Z,11.20
2017-10-04T04:18:13.764Z,11.20
2017-10-04T04:20:41.217Z,11.20
2017-10-04T04:23:08.666Z,11.30
2017-10-04T04:25:36.146Z,11.30
2017-10-04T04:28:03.601Z,11.30
2017-10-04T04:30:31.054Z,11.30
2017-10-04T04:32:58.810Z,11.30
2017-10-04T04:35:26.253Z,11.30
2017-10-04T04:38:05.980Z,11.30
2017-10-04T04:40:33.446Z,11.30
2017-10-04T04:43:00.901Z,11.40
2017-10-04T04:45:28.393Z,11.40
2017-10-04T04:47:55.858Z,11.40
2017-10-04T04:50:23.306Z,11.30
2017-10-04T04:52:50.756Z,11.30
2017-10-04T04:55:18.205Z,11.30
2017-10-04T04:57:45.695Z,11.40
2017-10-04T05:00:13.542Z,11.40
2017-10-04T05:02:41.402Z,11.40
2017-10-04T05:05:08.854Z,11.40
2017-10-04T05:07:36.318Z,11.40
2017-10-04T05:10:03.778Z,11.30
2017-10-04T05:12:31.234Z,11.20
2017-10-04T05:14:59.100Z,11.10
2017-10-04T05:17:26.550Z,11.10
2017-10-04T05:19:53.999Z,11.10
2017-10-04T05:22:21.717Z,11.10
2017-10-04T05:24:49.169Z,11.10
2017-10-04T05:27:16.627Z,11.10
2017-10-04T05:29:44.098Z,11.10
2017-10-04T05:32:11.557Z,11.10
2017-10-04T05:34:39.017Z,11.20
2017-10-04T05:37:06.485Z,11.20
2017-10-04T05:39:33.933Z,11.20
2017-10-04T05:42:01.393Z,11.20
2017-10-04T05:44:28.861Z,11.30
2017-10-04T05:46:56.320Z,11.30
2017-10-04T05:49:23.769Z,11.30
2017-10-04T05:51:51.241Z,11.30
2017-10-04T05:54:19.089Z,11.40
2017-10-04T05:56:46.541Z,11.40
2017-10-04T05:59:14.193Z,11.40
2017-10-04T06:01:41.649Z,11.50
2017-10-04T06:04:09.101Z,11.50
2017-10-04T06:06:36.570Z,11.50
2017-10-04T06:09:04.026Z,11.50
2017-10-04T06:11:31.487Z,11.50
2017-10-04T06:13:58.935Z,11.50
2017-10-04T06:16:26.698Z,11.50
2017-10-04T06:18:54.149Z,11.50
2017-10-04T06:21:21.617Z,11.50
2017-10-04T06:23:49.115Z,11.50
2017-10-04T06:26:16.562Z,11.60
2017-10-04T06:28:44.013Z,11.60
2017-10-04T06:31:11.722Z,11.60
2017-10-04T06:33:39.178Z,11.60
2017-10-04T06:36:06.634Z,11.60
2017-10-04T06:38:34.122Z,11.60
2017-10-04T06:41:01.973Z,11.70
2017-10-04T06:43:29.426Z,11.70
2017-10-04T06:45:57.370Z,11.70
2017-10-04T06:48:24.847Z,11.70
2017-10-04T06:50:52.830Z,11.70
2017-10-04T06:53:20.683Z,11.70
2017-10-04T06:55:48.530Z,11.70
2017-10-04T06:58:16.018Z,11.70
2017-10-04T07:00:43.475Z,11.70
2017-10-04T07:03:11.329Z,11.80
2017-10-04T07:05:39.203Z,11.80
2017-10-04T07:08:07.045Z,11.90
2017-10-04T07:10:34.499Z,11.90
2017-10-04T07:13:02.563Z,11.90
2017-10-04T07:15:30.047Z,11.90
2017-10-04T07:17:57.937Z,11.90
2017-10-04T07:20:25.417Z,11.90
2017-10-04T07:22:52.870Z,11.90
2017-10-04T07:25:20.339Z,11.90
2017-10-04T07:27:48.210Z,12.00
2017-10-04T07:30:15.670Z,12.00
2017-10-04T07:32:43.117Z,12.00
2017-10-04T07:35:10.682Z,12.10
2017-10-04T07:37:38.142Z,12.10
2017-10-04T07:40:05.602Z,12.30
2017-10-04T07:42:33.083Z,12.40
2017-10-04T07:45:00.926Z,12.70
2017-10-04T07:47:28.783Z,12.60
2017-10-04T07:49:56.261Z,12.60
2017-10-04T07:52:24.109Z,12.60
2017-10-04T07:54:51.961Z,12.60
2017-10-04T07:57:19.453Z,12.60
2017-10-04T07:59:46.897Z,12.50
2017-10-04T08:02:14.740Z,12.60
2017-10-04T08:04:42.305Z,12.60
2017-10-04T08:07:10.156Z,12.50
2017-10-04T08:09:37.636Z,12.50
2017-10-04T08:12:05.878Z,12.50
2017-10-04T08:14:33.329Z,12.50
2017-10-04T08:17:00.785Z,12.50
2017-10-04T08:19:28.243Z,12.50
2017-10-04T08:21:55.693Z,12.60
2017-10-04T08:24:23.197Z,12.50
2017-10-04T08:26:50.654Z,12.50
2017-10-04T08:29:18.101Z,12.60
2017-10-04T08:31:45.994Z,12.60
2017-10-04T08:34:13.451Z,12.60
2017-10-04T08:36:40.907Z,12.60
2017-10-04T08:39:08.381Z,12.70
2017-10-04T08:41:35.837Z,12.80
2017-10-04T08:44:03.316Z,12.80
2017-10-04T08:46:30.798Z,12.80
2017-10-04T08:48:58.726Z,12.80
2017-10-04T08:51:26.185Z,12.80
2017-10-04T08:53:53.701Z,12.90
2017-10-04T08:56:21.157Z,13.00
2017-10-04T08:58:48.606Z,13.00
2017-10-04T09:01:16.111Z,13.10
2017-10-04T09:03:43.902Z,13.00
2017-10-04T09:06:13.665Z,12.80
2017-10-04T09:08:41.124Z,12.80
2017-10-04T09:11:08.691Z,12.90
2017-10-04T09:13:36.137Z,12.90
2017-10-04T09:16:03.605Z,13.00
2017-10-04T09:18:31.061Z,13.00
2017-10-04T09:20:58.514Z,13.00
2017-10-04T09:23:25.997Z,13.10
2017-10-04T09:25:53.840Z,13.00
2017-10-04T09:28:21.290Z,13.00
2017-10-04T09:30:48.785Z,12.90
2017-10-04T09:33:16.620Z,12.80
2017-10-04T09:35:44.484Z,12.80
2017-10-04T09:38:12.089Z,12.80
2017-10-04T09:40:39.542Z,12.80
2017-10-04T09:43:06.990Z,12.90
2017-10-04T09:45:34.473Z,12.80
2017-10-04T09:48:01.930Z,12.90
2017-10-04T09:50:29.382Z,12.90
2017-10-04T09:52:57.849Z,12.90
2017-10-04T09:55:25.301Z,12.90
2017-10-04T09:57:52.758Z,12.80
2017-10-04T10:00:20.323Z,12.90
2017-10-04T10:02:47.837Z,12.80
2017-10-04T10:05:16.725Z,12.90
2017-10-04T10:07:44.591Z,12.80
2017-10-04T10:10:12.446Z,12.90
2017-10-04T10:12:39.904Z,12.80
2017-10-04T10:15:07.755Z,12.90
2017-10-04T10:17:35.467Z,12.90
2017-10-04T10:20:02.765Z,12.90
2017-10-04T10:22:30.225Z,12.80
2017-10-04T10:24:57.678Z,12.80
2017-10-04T10:27:25.157Z,12.80
2017-10-04T10:29:53.005Z,12.80
2017-10-04T10:32:20.469Z,12.80
2017-10-04T10:34:48.377Z,13.00
2017-10-04T10:37:15.825Z,13.00
2017-10-04T10:39:43.287Z,13.00
2017-10-04T10:42:10.893Z,13.00
2017-10-04T10:44:38.342Z,13.00
2017-10-04T10:47:05.793Z,13.00
2017-10-04T10:49:33.255Z,13.00
2017-10-04T10:52:00.709Z,13.00
2017-10-04T10:54:28.290Z,13.00
2017-10-04T10:56:55.762Z,13.00
2017-10-04T10:59:23.209Z,13.00
2017-10-04T11:01:50.701Z,13.00
2017-10-04T11:04:19.156Z,12.90
2017-10-04T11:06:46.611Z,12.90
2017-10-04T11:09:14.110Z,12.90
2017-10-04T11:11:41.570Z,13.00
2017-10-04T11:14:09.025Z,13.00
2017-10-04T11:16:36.490Z,13.00
2017-10-04T11:19:04.342Z,12.90
2017-10-04T11:21:31.808Z,12.90
2017-10-04T11:23:59.282Z,12.90
2017-10-04T11:26:27.129Z,12.90
2017-10-04T11:28:54.715Z,12.90
2017-10-04T11:31:22.739Z,12.80
2017-10-04T11:33:50.202Z,12.80
2017-10-04T11:36:17.655Z,12.90
2017-10-04T11:38:45.128Z,12.90
2017-10-04T11:41:12.598Z,12.90
2017-10-04T11:43:40.498Z,12.90
2017-10-04T11:46:08.299Z,12.90
2017-10-04T11:48:35.750Z,12.90
2017-10-04T11:51:03.210Z,12.90
2017-10-04T11:53:30.695Z,13.00
2017-10-04T11:55:58.557Z,13.00
2017-10-04T11:58:26.394Z,12.90
2017-10-04T12:00:53.883Z,12.90
2017-10-04T12:03:21.733Z,12.90
2017-10-04T12:05:49.583Z,12.90
2017-10-04T12:08:17.213Z,12.90
2017-10-04T12:10:44.663Z,12.90
2017-10-04T12:13:12.122Z,12.90
2017-10-04T12:15:39.609Z,13.00
2017-10-04T12:18:07.066Z,13.00
2017-10-04T12:20:34.957Z,13.00
2017-10-04T12:23:02.801Z,13.00
2017-10-04T12:25:30.646Z,13.00
2017-10-04T12:27:58.217Z,13.00
2017-10-04T12:30:25.674Z,13.00
2017-10-04T12:32:53.139Z,13.00
2017-10-04T12:35:21.002Z,13.00
2017-10-04T12:37:48.846Z,13.00
2017-10-04T12:40:16.302Z,13.00
2017-10-04T12:42:43.919Z,13.00
2017-10-04T12:45:11.377Z,13.00
2017-10-04T12:47:38.833Z,13.00
2017-10-04T12:50:06.530Z,13.00
2017-10-04T12:52:33.986Z,13.00
2017-10-04T12:55:01.443Z,13.00
2017-10-04T12:57:28.951Z,13.00
2017-10-04T12:59:56.434Z,13.00
2017-10-04T13:02:23.893Z,13.00
2017-10-04T13:04:51.350Z,13.00
2017-10-04T13:07:19.130Z,13.00
2017-10-04T13:09:46.583Z,13.00
2017-10-04T13:12:14.035Z,13.00
2017-10-04T13:14:41.532Z,13.00
2017-10-04T13:17:08.994Z,13.00
2017-10-04T13:19:36.434Z,13.00
2017-10-04T13:22:04.314Z,13.00
2017-10-04T13:24:31.940Z,13.00
2017-10-04T13:26:59.865Z,13.10
2017-10-04T13:29:27.525Z,13.10
2017-10-04T13:31:55.461Z,13.10
2017-10-04T13:34:23.427Z,13.10
2017-10-04T13:36:50.899Z,13.10
2017-10-04T13:39:18.353Z,13.10
2017-10-04T13:41:45.822Z,13.10
2017-10-04T13:44:13.276Z,13.20
2017-10-04T13:46:40.758Z,13.10
2017-10-04T13:49:08.226Z,13.20
2017-10-04T13:51:35.680Z,13.20
2017-10-04T13:54:03.131Z,13.30
2017-10-04T13:56:30.635Z,13.30
2017-10-04T13:58:58.350Z,13.30
2017-10-04T14:01:25.816Z,13.50
2017-10-04T14:03:53.261Z,13.50
2017-10-04T14:06:21.138Z,13.40
2017-10-04T14:08:48.585Z,13.40
2017-10-04T14:11:16.036Z,13.40
2017-10-04T14:13:43.514Z,13.40
2017-10-04T14:16:11.362Z,13.30
2017-10-04T14:18:39.214Z,13.30
2017-10-04T14:21:06.723Z,13.30
2017-10-04T14:23:34.166Z,13.30
2017-10-04T14:26:01.626Z,13.30
2017-10-04T14:28:29.097Z,13.20
2017-10-04T14:30:56.554Z,13.20
2017-10-04T14:33:24.021Z,13.20
2017-10-04T14:35:51.501Z,13.20
2017-10-04T14:38:18.947Z,13.20
2017-10-04T14:40:46.413Z,13.10
2017-10-04T14:43:13.925Z,13.10
2017-10-04T14:45:41.388Z,13.00
2017-10-04T14:48:08.839Z,13.00
2017-10-04T14:50:36.339Z,13.00
2017-10-04T14:53:03.785Z,13.10
2017-10-04T14:55:31.241Z,13.10
2017-10-04T14:57:58.694Z,13.20
2017-10-04T15:00:26.154Z,13.10
2017-10-04T15:02:53.807Z,13.10
2017-10-04T15:05:21.266Z,13.00
2017-10-04T15:07:48.718Z,13.10
2017-10-04T15:10:16.190Z,13.10
2017-10-04T15:12:43.934Z,13.10
2017-10-04T15:15:11.416Z,13.10
2017-10-04T15:17:39.268Z,13.10
2017-10-04T15:20:06.745Z,13.10
2017-10-04T15:22:34.709Z,13.10
2017-10-04T15:25:02.559Z,13.20
2017-10-04T15:27:30.006Z,13.20
2017-10-04T15:29:57.490Z,13.20
2017-10-04T15:32:25.337Z,13.20
2017-10-04T15:34:53.204Z,13.10
2017-10-04T15:37:21.358Z,13.20
2017-10-04T15:39:48.814Z,13.20
2017-10-04T15:42:16.271Z,13.10
2017-10-04T15:44:43.763Z,13.10
2017-10-04T15:47:11.605Z,13.00
2017-10-04T15:49:39.454Z,13.00
2017-10-04T15:52:06.914Z,13.00
2017-10-04T15:54:34.630Z,12.90
2017-10-04T15:57:02.088Z,12.90
2017-10-04T15:59:29.541Z,12.90
2017-10-04T16:01:57.033Z,12.80
2017-10-04T16:04:24.490Z,12.80
2017-10-04T16:06:51.994Z,12.80
2017-10-04T16:09:19.462Z,12.80
2017-10-04T16:11:46.927Z,12.90
2017-10-04T16:14:14.380Z,12.80
2017-10-04T16:16:42.065Z,12.80
2017-10-04T16:19:09.546Z,12.80
2017-10-04T16:21:36.994Z,12.80
2017-10-04T16:24:04.494Z,12.80
2017-10-04T16:26:31.954Z,12.70
2017-10-04T16:28:59.413Z,12.70
2017-10-04T16:31:27.104Z,12.70
2017-10-04T16:33:54.547Z,12.60
2017-10-04T16:36:22.010Z,12.60
2017-10-04T16:38:49.497Z,12.70
2017-10-04T16:41:17.348Z,12.60
2017-10-04T16:43:44.810Z,12.60
2017-10-04T16:46:12.312Z,12.70
2017-10-04T16:48:39.765Z,12.70
2017-10-04T16:51:07.210Z,12.70
2017-10-04T16:53:34.691Z,12.70
2017-10-04T16:56:02.145Z,12.70
2017-10-04T16:58:29.599Z,12.70
2017-10-04T17:00:57.593Z,12.50
2017-10-04T17:03:25.058Z,11.90
2017-10-04T17:05:52.522Z,11.90
2017-10-04T17:08:19.982Z,11.90
2017-10-04T17:10:47.837Z,11.50
2017-10-04T17:13:15.316Z,11.50
2017-10-04T17:15:43.159Z,11.60
2017-10-04T17:18:10.615Z,11.60
2017-10-04T17:20:38.873Z,11.30
2017-10-04T17:23:06.339Z,11.30
2017-10-04T17:25:34.193Z,11.50
2017-10-04T17:28:01.638Z,11.50
2017-10-04T17:30:29.095Z,11.40
2017-10-04T17:32:56.572Z,11.40
2017-10-04T17:35:24.045Z,11.40
2017-10-04T17:37:51.903Z,11.40
2017-10-04T17:40:19.755Z,11.40
2017-10-04T17:42:47.238Z,11.40
2017-10-04T17:45:14.689Z,11.50
2017-10-04T17:47:42.138Z,11.40
2017-10-04T17:50:10.274Z,11.40
2017-10-04T17:52:37.721Z,11.40
2017-10-04T17:55:05.183Z,11.30
2017-10-04T17:57:32.673Z,11.20
2017-10-04T18:00:00.531Z,11.10
2017-10-04T18:02:28.400Z,11.00
2017-10-04T18:04:56.297Z,11.00
2017-10-04T18:07:23.753Z,11.00
2017-10-04T18:09:51.210Z,10.90
2017-10-04T18:12:18.698Z,10.80
2017-10-04T18:14:46.165Z,10.80
2017-10-04T18:17:13.646Z,10.90
2017-10-04T18:19:41.157Z,10.90
2017-10-04T18:22:09.493Z,10.90
2017-10-04T18:24:37.740Z,10.80
2017-10-04T18:27:05.791Z,10.80
2017-10-04T18:29:33.357Z,10.90
2017-10-04T18:32:00.954Z,10.80
2017-10-04T18:34:28.542Z,10.90
2017-10-04T18:36:56.193Z,11.00
2017-10-04T18:39:23.947Z,11.20
2017-10-04T18:41:51.841Z,11.20
2017-10-04T18:44:19.508Z,11.10
2017-10-04T18:46:47.830Z,11.10
2017-10-04T18:49:15.554Z,11.20
2017-10-04T18:51:43.435Z,11.10
2017-10-04T18:54:11.790Z,11.20
2017-10-04T18:56:40.558Z,11.20
2017-10-04T18:59:08.989Z,11.20
2017-10-04T19:01:37.558Z,11.10
2017-10-04T19:04:05.993Z,11.10
2017-10-04T19:06:34.480Z,11.10
2017-10-04T19:09:03.370Z,11.20
2017-10-04T19:11:32.139Z,11.20
2017-10-04T19:14:00.553Z,11.20
2017-10-04T19:16:29.061Z,11.20
2017-10-04T19:18:57.537Z,11.20
2017-10-04T19:21:25.786Z,11.20
2017-10-04T19:23:54.632Z,11.20
2017-10-04T19:26:22.890Z,11.20
2017-10-04T19:28:51.527Z,11.20
2017-10-04T19:31:19.884Z,11.10
2017-10-04T19:33:48.430Z,11.10
2017-10-04T19:36:17.036Z,11.10
2017-10-04T19:38:45.448Z,11.10
2017-10-04T19:41:14.052Z,11.20
2017-10-04T19:43:42.883Z,11.20
2017-10-04T19:46:11.260Z,11.20
2017-10-04T19:48:39.566Z,11.30
2017-10-04T19:51:07.889Z,11.20
2017-10-04T19:53:36.088Z,11.20
2017-10-04T19:56:04.325Z,11.20
2017-10-04T19:58:32.111Z,11.20
2017-10-04T20:01:00.644Z,11.20
2017-10-04T20:03:28.475Z,11.20
2017-10-04T20:05:56.238Z,11.20
2017-10-04T20:08:23.907Z,11.30
2017-10-04T20:10:51.655Z,11.30
2017-10-04T20:13:19.437Z,11.30
2017-10-04T20:15:47.163Z,11.30
2017-10-04T20:18:14.837Z,11.40
2017-10-04T20:20:42.420Z,11.40
2017-10-04T20:23:10.319Z,11.40
2017-10-04T20:25:37.983Z,11.40
2017-10-04T20:28:05.444Z,11.40
2017-10-04T20:30:33.007Z,11.40
2017-10-04T20:33:00.511Z,11.40
2017-10-04T20:35:28.023Z,11.40
2017-10-04T20:37:55.506Z,11.40
2017-10-04T20:40:22.973Z,11.40
2017-10-04T20:42:50.466Z,11.40
2017-10-04T20:45:18.321Z,11.40
2017-10-04T20:47:46.169Z,11.40
2017-10-04T20:50:13.658Z,11.40
2017-10-04T20:52:41.732Z,11.40
2017-10-04T20:55:09.202Z,11.50
2017-10-04T20:57:36.675Z,11.40
2017-10-04T21:00:04.259Z,11.50
2017-10-04T21:02:31.707Z,11.50
2017-10-04T21:04:59.172Z,11.50
2017-10-04T21:07:26.665Z,11.50
2017-10-04T21:09:54.118Z,11.50
2017-10-04T21:12:21.589Z,11.50
2017-10-04T21:14:49.281Z,11.50
2017-10-04T21:17:16.746Z,11.50
2017-10-04T21:19:44.206Z,11.40
2017-10-04T21:22:11.676Z,11.50
2017-10-04T21:24:39.343Z,11.40
2017-10-04T21:27:07.197Z,11.40
2017-10-04T21:29:35.135Z,11.40
2017-10-04T21:32:02.599Z,11.40
2017-10-04T21:34:30.051Z,11.40
2017-10-04T21:36:57.824Z,11.40
2017-10-04T21:39:25.294Z,11.30
2017-10-04T21:41:53.144Z,11.30
2017-10-04T21:44:20.598Z,11.30
2017-10-04T21:46:48.051Z,11.40
2017-10-04T21:49:15.628Z,11.40
2017-10-04T21:51:43.482Z,11.40
2017-10-04T21:54:10.929Z,11.40
2017-10-04T21:56:38.410Z,11.40
2017-10-04T21:59:06.276Z,11.50
2017-10-04T22:01:33.743Z,11.50
2017-10-04T22:04:01.256Z,11.40
2017-10-04T22:06:28.719Z,11.40
2017-10-04T22:08:56.177Z,11.40
2017-10-04T22:11:23.658Z,11.40
2017-10-04T22:13:51.501Z,11.20
2017-10-04T22:16:19.361Z,11.10
2017-10-04T22:18:47.122Z,11.10
2017-10-04T22:21:14.662Z,11.10
2017-10-04T22:23:42.134Z,11.10
2017-10-04T22:26:10.034Z,11.10
2017-10-04T22:28:37.486Z,11.10
2017-10-04T22:31:04.941Z,11.10
2017-10-04T22:33:32.790Z,11.10
2017-10-04T22:36:00.650Z,11.10
2017-10-04T22:38:28.399Z,11.10
2017-10-04T22:40:55.899Z,11.10
2017-10-04T22:43:23.349Z,11.10
2017-10-04T22:45:50.801Z,11.10
2017-10-04T22:48:18.620Z,11.10
2017-10-04T22:50:46.085Z,11.20
2017-10-04T22:53:13.529Z,11.10
2017-10-04T22:55:41.021Z,11.10
2017-10-04T22:58:08.874Z,11.10
2017-10-04T23:00:36.718Z,11.10
2017-10-04T23:03:04.301Z,11.10
2017-10-04T23:05:32.143Z,11.10
2017-10-04T23:07:59.594Z,11.10
2017-10-04T23:10:27.066Z,11.00
2017-10-04T23:12:55.126Z,11.00
2017-10-04T23:15:22.575Z,11.00
2017-10-04T23:17:50.026Z,10.90
2017-10-04T23:20:17.477Z,11.00
2017-10-04T23:22:45.138Z,11.00
2017-10-04T23:25:12.591Z,10.90
2017-10-04T23:27:40.041Z,11.00
2017-10-04T23:30:07.618Z,10.90
2017-10-04T23:32:35.075Z,10.90
2017-10-04T23:35:02.522Z,10.90
2017-10-04T23:37:30.006Z,10.90
2017-10-04T23:39:57.853Z,10.90
2017-10-04T23:42:25.297Z,10.90
2017-10-04T23:44:53.157Z,10.80
2017-10-04T23:47:20.618Z,10.80
2017-10-04T23:49:48.074Z,10.80
2017-10-04T23:52:15.570Z,10.90
2017-10-04T23:54:43.020Z,10.90
2017-10-04T23:57:10.470Z,10.90
2017-10-04T23:59:38.366Z,11.00
